createdAt,value
2024-04-10T00:00:58.808Z,28.25
2024-04-10T00:01:58.531Z,28.23
2024-04-10T00:02:58.391Z,28.27
2024-04-10T00:03:58.401Z,28.24
2024-04-10T00:04:58.750Z,28.24
2024-04-10T00:05:58.449Z,28.23
2024-04-10T00:06:58.434Z,28.23
2024-04-10T00:07:58.404Z,28.24
2024-04-10T00:08:58.383Z,28.24
2024-04-10T00:09:58.391Z,28.24
2024-04-10T00:10:58.490Z,28.24
2024-04-10T00:11:58.695Z,28.23
2024-04-10T00:12:58.465Z,28.23
2024-04-10T00:13:58.503Z,28.21
2024-04-10T00:14:58.992Z,28.23
2024-04-10T00:15:58.470Z,28.21
2024-04-10T00:16:58.489Z,28.23
2024-04-10T00:17:58.676Z,28.23
2024-04-10T00:18:58.864Z,28.21
2024-04-10T00:19:58.623Z,28.21
2024-04-10T00:20:58.650Z,28.23
2024-04-10T00:21:58.577Z,28.21
2024-04-10T00:22:58.674Z,28.21
2024-04-10T00:23:58.802Z,28.21
2024-04-10T00:24:58.652Z,28.20
2024-04-10T00:25:58.644Z,28.18
2024-04-10T00:26:58.670Z,28.20
2024-04-10T00:27:58.651Z,28.21
2024-04-10T00:28:58.862Z,28.18
2024-04-10T00:29:58.736Z,28.20
2024-04-10T00:30:58.771Z,28.20
2024-04-10T00:31:58.780Z,28.20
2024-04-10T00:32:58.991Z,28.17
2024-04-10T00:33:58.918Z,28.17
2024-04-10T00:34:58.874Z,28.18
2024-04-10T00:35:58.814Z,28.17
2024-04-10T00:36:58.828Z,28.15
2024-04-10T00:37:58.982Z,28.18
2024-04-10T00:38:58.869Z,28.17
2024-04-10T00:39:58.928Z,28.15
2024-04-10T00:40:58.995Z,28.15
2024-04-10T00:41:58.971Z,28.15
2024-04-10T00:42:58.913Z,28.18
2024-04-10T00:43:58.975Z,28.15
2024-04-10T00:44:59.010Z,28.15
2024-04-10T00:45:58.942Z,28.17
2024-04-10T00:46:59.068Z,28.14
2024-04-10T00:47:59.462Z,28.14
2024-04-10T00:48:59.140Z,28.15
2024-04-10T00:49:59.038Z,28.14
2024-04-10T00:50:59.032Z,28.17
2024-04-10T00:51:59.040Z,28.14
2024-04-10T00:52:59.109Z,28.15
2024-04-10T00:53:59.102Z,28.14
2024-04-10T00:54:59.129Z,28.14
2024-04-10T00:55:59.155Z,28.15
2024-04-10T00:56:59.188Z,28.14
2024-04-10T00:57:59.124Z,28.13
2024-04-10T00:58:59.170Z,28.13
2024-04-10T00:59:59.262Z,28.11
2024-04-10T01:00:59.347Z,28.11
2024-04-10T01:01:59.188Z,28.14
2024-04-10T01:02:59.998Z,28.10
2024-04-10T01:03:59.428Z,28.13
2024-04-10T01:04:59.285Z,28.13
2024-04-10T01:05:59.240Z,28.13
2024-04-10T01:06:59.239Z,28.13
2024-04-10T01:07:59.300Z,28.13
2024-04-10T01:08:59.240Z,28.13
2024-04-10T01:09:59.331Z,28.13
2024-04-10T01:10:59.353Z,28.13
2024-04-10T01:11:59.369Z,28.11
2024-04-10T01:12:59.338Z,28.10
2024-04-10T01:13:59.336Z,28.11
2024-04-10T01:14:59.350Z,28.11
2024-04-10T01:15:59.406Z,28.11
2024-04-10T01:16:59.503Z,28.10
2024-04-10T01:17:59.645Z,28.11
2024-04-10T01:18:59.590Z,28.10
2024-04-10T01:19:59.759Z,28.10
2024-04-10T01:20:59.436Z,28.08
2024-04-10T01:21:59.507Z,28.08
2024-04-10T01:22:59.498Z,28.08
2024-04-10T01:23:59.472Z,28.11
2024-04-10T01:24:59.487Z,28.11
2024-04-10T01:25:59.600Z,28.08
2024-04-10T01:26:59.758Z,28.10
2024-04-10T01:27:59.531Z,28.08
2024-04-10T01:28:59.603Z,28.07
2024-04-10T01:29:59.587Z,28.08
2024-04-10T01:30:59.598Z,28.07
2024-04-10T01:31:59.672Z,28.05
2024-04-10T01:32:59.824Z,28.05
2024-04-10T01:33:59.751Z,28.08
2024-04-10T01:34:59.739Z,28.07
2024-04-10T01:35:59.689Z,28.07
2024-04-10T01:36:59.784Z,28.08
2024-04-10T01:37:59.880Z,28.05
2024-04-10T01:38:59.762Z,28.05
2024-04-10T01:39:59.784Z,28.08
2024-04-10T01:40:59.902Z,28.04
2024-04-10T01:41:59.880Z,28.05
2024-04-10T01:42:59.901Z,28.08
2024-04-10T01:43:59.893Z,28.07
2024-04-10T01:44:59.852Z,28.05
2024-04-10T01:46:00.532Z,28.04
2024-04-10T01:47:00.006Z,28.04
2024-04-10T01:48:00.199Z,28.04
2024-04-10T01:49:00.151Z,28.04
2024-04-10T01:49:59.986Z,28.04
2024-04-10T01:50:59.950Z,28.04
2024-04-10T01:51:59.965Z,28.05
2024-04-10T01:53:00.064Z,28.05
2024-04-10T01:54:00.022Z,28.05
2024-04-10T01:55:00.053Z,28.04
2024-04-10T01:56:00.119Z,28.03
2024-04-10T01:57:00.066Z,28.01
2024-04-10T01:58:00.126Z,28.04
2024-04-10T01:59:00.124Z,28.01
2024-04-10T02:00:00.278Z,28.05
2024-04-10T02:01:00.340Z,28.01
2024-04-10T02:02:00.238Z,28.03
2024-04-10T02:03:00.256Z,28.03
2024-04-10T02:04:00.356Z,28.01
2024-04-10T02:05:00.275Z,28.03
2024-04-10T02:06:00.377Z,28.01
2024-04-10T02:07:00.264Z,27.99
2024-04-10T02:08:00.509Z,28.00
2024-04-10T02:09:00.281Z,27.99
2024-04-10T02:10:00.333Z,28.01
2024-04-10T02:11:00.440Z,28.03
2024-04-10T02:12:00.443Z,28.00
2024-04-10T02:13:00.412Z,28.00
2024-04-10T02:14:00.479Z,28.00
2024-04-10T02:15:00.527Z,28.01
2024-04-10T02:16:00.502Z,28.00
2024-04-10T02:17:00.677Z,28.00
2024-04-10T02:18:00.702Z,27.99
2024-04-10T02:19:00.506Z,28.01
2024-04-10T02:20:00.712Z,27.99
2024-04-10T02:21:02.618Z,28.00
2024-04-10T02:22:00.518Z,27.99
2024-04-10T02:23:00.577Z,27.97
2024-04-10T02:24:00.589Z,27.99
2024-04-10T02:25:00.544Z,27.97
2024-04-10T02:26:00.621Z,27.97
2024-04-10T02:27:00.565Z,27.97
2024-04-10T02:28:00.782Z,27.97
2024-04-10T02:29:00.576Z,27.97
2024-04-10T02:30:00.588Z,27.96
2024-04-10T02:31:00.540Z,27.97
2024-04-10T02:32:00.653Z,27.96
2024-04-10T02:33:00.810Z,27.97
2024-04-10T02:34:00.786Z,27.96
2024-04-10T02:35:00.714Z,27.96
2024-04-10T02:36:00.578Z,27.97
2024-04-10T02:37:00.580Z,27.96
2024-04-10T02:38:00.632Z,27.96
2024-04-10T02:39:00.582Z,28.00
2024-04-10T02:40:00.711Z,27.94
2024-04-10T02:41:01.356Z,27.94
2024-04-10T02:42:00.691Z,27.93
2024-04-10T02:43:00.556Z,27.96
2024-04-10T02:44:00.648Z,27.93
2024-04-10T02:45:00.608Z,27.94
2024-04-10T02:46:00.689Z,27.94
2024-04-10T02:47:00.704Z,27.96
2024-04-10T02:48:00.610Z,27.96
2024-04-10T02:49:00.560Z,27.97
2024-04-10T02:50:00.593Z,27.93
2024-04-10T02:51:00.582Z,27.93
2024-04-10T02:52:00.677Z,27.93
2024-04-10T02:53:00.570Z,27.94
2024-04-10T02:54:00.839Z,27.93
2024-04-10T02:55:00.602Z,27.93
2024-04-10T02:56:00.586Z,27.93
2024-04-10T02:57:00.590Z,27.92
2024-04-10T02:58:00.678Z,27.90
2024-04-10T02:59:00.936Z,27.93
2024-04-10T03:00:00.592Z,27.93
2024-04-10T03:01:00.672Z,27.93
2024-04-10T03:02:00.689Z,27.93
2024-04-10T03:03:00.605Z,27.92
2024-04-10T03:04:00.706Z,27.92
2024-04-10T03:05:00.745Z,27.93
2024-04-10T03:06:00.563Z,27.93
2024-04-10T03:07:00.568Z,27.90
2024-04-10T03:08:00.695Z,27.90
2024-04-10T03:09:00.600Z,27.90
2024-04-10T03:10:00.625Z,27.90
2024-04-10T03:11:00.870Z,27.90
2024-04-10T03:12:01.030Z,27.89
2024-04-10T03:13:00.626Z,27.90
2024-04-10T03:14:00.719Z,27.89
2024-04-10T03:15:00.642Z,27.90
2024-04-10T03:16:00.583Z,27.89
2024-04-10T03:17:00.866Z,27.89
2024-04-10T03:18:00.787Z,27.90
2024-04-10T03:19:00.703Z,27.90
2024-04-10T03:20:00.805Z,27.92
2024-04-10T03:21:00.731Z,27.87
2024-04-10T03:22:00.785Z,27.89
2024-04-10T03:23:00.815Z,27.87
2024-04-10T03:24:00.809Z,27.87
2024-04-10T03:25:00.849Z,27.89
2024-04-10T03:26:00.906Z,27.89
2024-04-10T03:27:00.916Z,27.87
2024-04-10T03:28:01.069Z,27.87
2024-04-10T03:29:01.047Z,27.87
2024-04-10T03:30:01.018Z,27.89
2024-04-10T03:31:01.013Z,27.84
2024-04-10T03:32:01.099Z,27.86
2024-04-10T03:33:01.247Z,27.84
2024-04-10T03:34:01.254Z,27.86
2024-04-10T03:35:01.227Z,27.84
2024-04-10T03:36:01.194Z,27.86
2024-04-10T03:37:01.257Z,27.84
2024-04-10T03:38:01.400Z,27.86
2024-04-10T03:39:01.375Z,27.84
2024-04-10T03:40:01.412Z,27.87
2024-04-10T03:41:01.494Z,27.84
2024-04-10T03:42:01.384Z,27.86
2024-04-10T03:43:01.538Z,27.84
2024-04-10T03:44:01.552Z,27.83
2024-04-10T03:45:01.570Z,27.83
2024-04-10T03:46:01.570Z,27.83
2024-04-10T03:47:02.043Z,27.86
2024-04-10T03:48:01.762Z,27.87
2024-04-10T03:49:01.918Z,27.84
2024-04-10T03:50:01.868Z,27.83
2024-04-10T03:51:01.748Z,27.82
2024-04-10T03:52:01.752Z,27.83
2024-04-10T03:53:01.844Z,27.84
2024-04-10T03:54:01.918Z,27.84
2024-04-10T03:55:02.003Z,27.82
2024-04-10T03:56:01.946Z,27.82
2024-04-10T03:57:01.914Z,27.84
2024-04-10T03:58:01.969Z,27.83
2024-04-10T03:59:02.051Z,27.83
2024-04-10T04:00:02.032Z,27.83
2024-04-10T04:01:02.129Z,27.83
2024-04-10T04:02:02.248Z,27.82
2024-04-10T04:03:02.379Z,27.82
2024-04-10T04:04:02.372Z,27.77
2024-04-10T04:05:02.262Z,27.74
2024-04-10T04:06:02.303Z,27.79
2024-04-10T04:07:02.322Z,27.76
2024-04-10T04:08:02.356Z,27.76
2024-04-10T04:09:02.380Z,27.77
2024-04-10T04:10:02.473Z,27.74
2024-04-10T04:11:02.598Z,27.76
2024-04-10T04:12:02.644Z,27.76
2024-04-10T04:13:02.559Z,27.72
2024-04-10T04:14:02.715Z,27.70
2024-04-10T04:15:02.794Z,27.69
2024-04-10T04:16:02.775Z,27.70
2024-04-10T04:17:02.847Z,27.70
2024-04-10T04:18:02.922Z,27.67
2024-04-10T04:19:02.950Z,27.69
2024-04-10T04:20:03.116Z,27.69
2024-04-10T04:21:10.399Z,27.64
2024-04-10T04:22:10.577Z,27.66
2024-04-10T04:23:10.433Z,27.63
2024-04-10T04:24:10.485Z,27.64
2024-04-10T04:25:10.380Z,27.63
2024-04-10T04:26:10.443Z,27.62
2024-04-10T04:27:10.412Z,27.63
2024-04-10T04:28:10.456Z,27.63
2024-04-10T04:29:10.433Z,27.60
2024-04-10T04:30:10.407Z,27.60
2024-04-10T04:31:17.785Z,27.56
2024-04-10T04:32:17.754Z,27.56
2024-04-10T04:33:17.802Z,27.57
2024-04-10T04:34:17.814Z,27.56
2024-04-10T04:35:17.723Z,27.56
2024-04-10T04:36:17.632Z,27.56
2024-04-10T04:37:17.630Z,27.56
2024-04-10T04:38:17.769Z,27.54
2024-04-10T04:39:17.631Z,27.56
2024-04-10T04:40:17.672Z,27.56
2024-04-10T04:41:17.700Z,27.57
2024-04-10T04:42:17.664Z,27.56
2024-04-10T04:43:17.695Z,27.56
2024-04-10T04:44:17.760Z,27.54
2024-04-10T04:45:17.698Z,27.57
2024-04-10T04:46:17.794Z,27.57
2024-04-10T04:47:17.811Z,27.57
2024-04-10T04:48:18.124Z,27.57
2024-04-10T04:49:17.702Z,27.59
2024-04-10T04:50:17.731Z,27.57
2024-04-10T04:51:17.721Z,27.59
2024-04-10T04:52:17.725Z,27.60
2024-04-10T04:53:17.865Z,27.57
2024-04-10T04:54:17.858Z,27.59
2024-04-10T04:55:17.929Z,27.62
2024-04-10T04:56:17.975Z,27.60
2024-04-10T04:57:17.993Z,27.59
2024-04-10T04:58:18.084Z,27.62
2024-04-10T04:59:18.205Z,27.62
2024-04-10T05:00:18.267Z,27.59
2024-04-10T05:01:18.240Z,27.62
2024-04-10T05:02:18.486Z,27.60
2024-04-10T05:03:18.446Z,27.60
2024-04-10T05:04:18.575Z,27.60
2024-04-10T05:05:18.544Z,27.60
2024-04-10T05:06:21.004Z,27.62
2024-04-10T05:07:18.505Z,27.59
2024-04-10T05:08:18.611Z,27.60
2024-04-10T05:09:18.515Z,27.60
2024-04-10T05:10:18.697Z,27.62
2024-04-10T05:11:18.645Z,27.62
2024-04-10T05:12:18.668Z,27.60
2024-04-10T05:13:18.548Z,27.60
2024-04-10T05:14:18.843Z,27.60
2024-04-10T05:15:18.572Z,27.59
2024-04-10T05:16:18.562Z,27.62
2024-04-10T05:17:18.622Z,27.60
2024-04-10T05:18:18.656Z,27.60
2024-04-10T05:19:18.535Z,27.63
2024-04-10T05:20:19.250Z,27.60
2024-04-10T05:21:18.710Z,27.60
2024-04-10T05:22:18.514Z,27.59
2024-04-10T05:23:18.679Z,27.59
2024-04-10T05:24:18.619Z,27.60
2024-04-10T05:25:18.574Z,27.60
2024-04-10T05:26:18.648Z,27.60
2024-04-10T05:27:18.583Z,27.60
2024-04-10T05:28:18.559Z,27.59
2024-04-10T05:29:18.624Z,27.62
2024-04-10T05:30:18.603Z,27.60
2024-04-10T05:31:18.603Z,27.60
2024-04-10T05:32:18.663Z,27.62
2024-04-10T05:33:18.689Z,27.60
2024-04-10T05:34:18.849Z,27.59
2024-04-10T05:35:18.627Z,27.62
2024-04-10T05:36:18.540Z,27.62
2024-04-10T05:37:18.655Z,27.63
2024-04-10T05:38:18.594Z,27.60
2024-04-10T05:39:18.592Z,27.56
2024-04-10T05:40:18.979Z,27.52
2024-04-10T05:41:18.751Z,27.49
2024-04-10T05:42:18.722Z,27.45
2024-04-10T05:43:18.591Z,27.42
2024-04-10T05:44:19.088Z,27.38
2024-04-10T05:45:18.741Z,27.32
2024-04-10T05:46:18.797Z,27.22
2024-04-10T05:47:19.936Z,27.19
2024-04-10T05:48:18.739Z,27.18
2024-04-10T05:49:18.629Z,27.16
2024-04-10T05:50:19.170Z,27.15
2024-04-10T05:51:18.659Z,27.15
2024-04-10T05:52:18.611Z,27.18
2024-04-10T05:53:18.707Z,27.16
2024-04-10T05:54:18.910Z,27.16
2024-04-10T05:55:18.782Z,27.22
2024-04-10T05:56:18.691Z,27.19
2024-04-10T05:57:18.588Z,27.26
2024-04-10T05:58:18.758Z,27.25
2024-04-10T05:59:18.993Z,27.28
2024-04-10T06:00:18.769Z,27.26
2024-04-10T06:01:18.779Z,27.32
2024-04-10T06:02:19.060Z,27.32
2024-04-10T06:03:19.044Z,27.38
2024-04-10T06:04:18.957Z,27.38
2024-04-10T06:05:19.174Z,27.39
2024-04-10T06:06:19.025Z,27.45
2024-04-10T06:07:19.282Z,27.46
2024-04-10T06:08:19.226Z,27.45
2024-04-10T06:09:19.238Z,27.48
2024-04-10T06:10:19.288Z,27.48
2024-04-10T06:11:19.615Z,27.50
2024-04-10T06:12:19.441Z,27.54
2024-04-10T06:13:19.440Z,27.53
2024-04-10T06:14:19.699Z,27.56
2024-04-10T06:15:19.557Z,27.54
2024-04-10T06:16:20.561Z,27.52
2024-04-10T06:17:20.414Z,27.49
2024-04-10T06:18:19.695Z,27.48
2024-04-10T06:19:19.715Z,27.46
2024-04-10T06:20:20.241Z,27.42
2024-04-10T06:21:19.797Z,27.39
2024-04-10T06:22:23.018Z,27.36
2024-04-10T06:23:19.718Z,27.38
2024-04-10T06:24:19.804Z,27.38
2024-04-10T06:25:19.733Z,27.35
2024-04-10T06:26:19.790Z,27.36
2024-04-10T06:27:19.865Z,27.38
2024-04-10T06:28:19.740Z,27.38
2024-04-10T06:29:19.760Z,27.39
2024-04-10T06:30:19.843Z,27.45
2024-04-10T06:31:19.750Z,27.43
2024-04-10T06:32:20.063Z,27.45
2024-04-10T06:33:20.034Z,27.45
2024-04-10T06:34:19.875Z,27.43
2024-04-10T06:35:19.848Z,27.46
2024-04-10T06:36:19.707Z,27.52
2024-04-10T06:37:19.716Z,27.53
2024-04-10T06:38:19.952Z,27.56
2024-04-10T06:39:19.802Z,27.57
2024-04-10T06:40:21.111Z,27.57
2024-04-10T06:41:19.923Z,27.60
2024-04-10T06:42:20.162Z,27.60
2024-04-10T06:43:20.370Z,27.56
2024-04-10T06:44:19.850Z,27.57
2024-04-10T06:45:19.848Z,27.56
2024-04-10T06:46:19.808Z,27.53
2024-04-10T06:47:20.243Z,27.52
2024-04-10T06:48:20.177Z,27.50
2024-04-10T06:49:20.501Z,27.52
2024-04-10T06:50:20.203Z,27.53
2024-04-10T06:51:20.365Z,27.53
2024-04-10T06:52:20.377Z,27.53
2024-04-10T06:53:20.328Z,27.53
2024-04-10T06:54:23.420Z,27.57
2024-04-10T06:55:20.518Z,27.57
2024-04-10T06:56:20.495Z,27.59
2024-04-10T06:57:20.839Z,27.63
2024-04-10T06:58:20.360Z,27.63
2024-04-10T06:59:20.586Z,27.67
2024-04-10T07:00:20.573Z,27.69
2024-04-10T07:01:20.700Z,27.70
2024-04-10T07:02:20.823Z,27.72
2024-04-10T07:03:20.908Z,27.70
2024-04-10T07:04:20.503Z,27.70
2024-04-10T07:05:20.504Z,27.72
2024-04-10T07:06:20.608Z,27.72
2024-04-10T07:07:20.728Z,27.73
2024-04-10T07:08:21.026Z,27.73
2024-04-10T07:09:20.431Z,27.76
2024-04-10T07:10:20.403Z,27.76
2024-04-10T07:11:21.333Z,27.76
2024-04-10T07:12:20.670Z,27.76
2024-04-10T07:13:20.384Z,27.77
2024-04-10T07:14:20.480Z,27.80
2024-04-10T07:15:20.855Z,27.80
2024-04-10T07:16:20.529Z,27.82
2024-04-10T07:17:20.600Z,27.82
2024-04-10T07:18:20.427Z,27.80
2024-04-10T07:19:20.587Z,27.83
2024-04-10T07:20:20.998Z,27.86
2024-04-10T07:21:20.532Z,27.84
2024-04-10T07:22:20.508Z,27.89
2024-04-10T07:23:20.449Z,27.90
2024-04-10T07:24:20.511Z,27.93
2024-04-10T07:25:21.569Z,27.93
2024-04-10T07:26:20.516Z,27.94
2024-04-10T07:27:20.972Z,27.96
2024-04-10T07:28:20.374Z,27.99
2024-04-10T07:29:20.612Z,27.99
2024-04-10T07:30:20.814Z,28.00
2024-04-10T07:31:20.490Z,28.03
2024-04-10T07:32:20.680Z,28.01
2024-04-10T07:33:20.541Z,28.04
2024-04-10T07:34:20.826Z,28.00
2024-04-10T07:35:24.844Z,27.99
2024-04-10T07:36:20.452Z,27.99
2024-04-10T07:37:20.637Z,27.92
2024-04-10T07:38:22.297Z,27.86
2024-04-10T07:39:20.854Z,27.73
2024-04-10T07:40:20.735Z,27.64
2024-04-10T07:41:20.425Z,27.54
2024-04-10T07:42:20.657Z,27.52
2024-04-10T07:43:20.905Z,27.46
2024-04-10T07:44:20.480Z,27.42
2024-04-10T07:45:20.415Z,27.39
2024-04-10T07:46:20.507Z,27.36
2024-04-10T07:47:21.608Z,27.33
2024-04-10T07:48:21.398Z,27.32
2024-04-10T07:49:23.542Z,27.30
2024-04-10T07:50:20.890Z,27.29
2024-04-10T07:51:20.406Z,27.29
2024-04-10T07:52:21.894Z,27.29
2024-04-10T07:53:20.428Z,27.26
2024-04-10T07:54:20.450Z,27.28
2024-04-10T07:55:21.387Z,27.26
2024-04-10T07:56:20.489Z,27.22
2024-04-10T07:57:20.955Z,27.24
2024-04-10T07:58:20.529Z,27.22
2024-04-10T07:59:20.921Z,27.21
2024-04-10T08:00:20.860Z,27.19
2024-04-10T08:01:20.732Z,27.18
2024-04-10T08:02:20.950Z,27.18
2024-04-10T08:03:20.479Z,27.19
2024-04-10T08:04:20.667Z,27.16
2024-04-10T08:05:20.545Z,27.15
2024-04-10T08:06:21.942Z,27.15
2024-04-10T08:07:21.001Z,27.12
2024-04-10T08:08:21.592Z,27.18
2024-04-10T08:09:21.084Z,27.16
2024-04-10T08:10:21.450Z,27.19
2024-04-10T08:11:21.386Z,27.18
2024-04-10T08:12:21.308Z,27.19
2024-04-10T08:13:20.579Z,27.19
2024-04-10T08:14:20.776Z,27.16
2024-04-10T08:15:20.778Z,27.19
2024-04-10T08:16:23.040Z,27.16
2024-04-10T08:17:20.897Z,27.15
2024-04-10T08:18:21.442Z,27.12
2024-04-10T08:19:20.933Z,27.10
2024-04-10T08:20:23.005Z,27.09
2024-04-10T08:21:20.987Z,27.06
2024-04-10T08:22:21.935Z,27.05
2024-04-10T08:23:21.938Z,26.99
2024-04-10T08:24:21.250Z,26.98
2024-04-10T08:25:21.375Z,26.96
2024-04-10T08:26:21.776Z,26.95
2024-04-10T08:27:21.454Z,26.95
2024-04-10T08:28:21.396Z,26.77
2024-04-10T08:29:22.856Z,26.70
2024-04-10T08:30:21.411Z,26.54
2024-04-10T08:31:21.472Z,26.33
2024-04-10T08:32:22.975Z,26.10
2024-04-10T08:33:21.640Z,25.94
2024-04-10T08:34:21.646Z,25.76
2024-04-10T08:35:22.131Z,25.60
2024-04-10T08:36:21.721Z,25.43
2024-04-10T08:37:22.071Z,25.21
2024-04-10T08:38:21.760Z,25.04
2024-04-10T08:39:21.929Z,24.85
2024-04-10T08:40:23.033Z,24.71
2024-04-10T08:41:21.955Z,24.60
2024-04-10T08:42:24.056Z,24.55
2024-04-10T08:43:22.650Z,24.58
2024-04-10T08:44:22.362Z,24.68
2024-04-10T08:45:22.112Z,24.74
2024-04-10T08:46:22.320Z,24.86
2024-04-10T08:47:22.596Z,25.01
2024-04-10T08:48:22.532Z,25.14
2024-04-10T08:49:22.199Z,25.29
2024-04-10T08:50:26.427Z,25.40
2024-04-10T08:51:23.270Z,25.58
2024-04-10T08:52:22.767Z,25.70
2024-04-10T08:53:22.772Z,25.81
2024-04-10T08:54:22.313Z,25.93
2024-04-10T08:55:22.687Z,26.03
2024-04-10T08:56:22.351Z,26.13
2024-04-10T08:57:23.366Z,26.20
2024-04-10T08:58:22.230Z,26.31
2024-04-10T08:59:22.230Z,26.35
2024-04-10T09:00:22.878Z,26.44
2024-04-10T09:01:22.552Z,26.51
2024-04-10T09:02:26.881Z,26.62
2024-04-10T09:03:24.606Z,26.70
2024-04-10T09:04:23.721Z,26.77
2024-04-10T09:05:23.995Z,26.84
2024-04-10T09:06:24.673Z,26.86
2024-04-10T09:07:23.252Z,26.91
2024-04-10T09:08:22.370Z,26.99
2024-04-10T09:09:22.324Z,27.02
2024-04-10T09:10:22.518Z,27.09
2024-04-10T09:11:22.788Z,27.09
2024-04-10T09:12:22.465Z,27.13
2024-04-10T09:13:24.472Z,27.18
2024-04-10T09:14:26.004Z,27.24
2024-04-10T09:15:26.713Z,27.25
2024-04-10T09:16:24.599Z,27.29
2024-04-10T09:17:22.691Z,27.35
2024-04-10T09:18:26.204Z,27.39
2024-04-10T09:19:22.932Z,27.43
2024-04-10T09:20:22.687Z,27.43
2024-04-10T09:21:22.778Z,27.49
2024-04-10T09:22:22.757Z,27.50
2024-04-10T09:23:22.949Z,27.56
2024-04-10T09:24:26.802Z,27.53
2024-04-10T09:25:22.961Z,27.59
2024-04-10T09:26:22.750Z,27.59
2024-04-10T09:27:22.700Z,27.62
2024-04-10T09:28:22.854Z,27.60
2024-04-10T09:29:22.908Z,27.63
2024-04-10T09:30:23.995Z,27.64
2024-04-10T09:31:22.807Z,27.63
2024-04-10T09:32:23.149Z,27.69
2024-04-10T09:33:23.007Z,27.67
2024-04-10T09:34:23.262Z,27.62
2024-04-10T09:35:23.009Z,27.54
2024-04-10T09:36:22.952Z,27.46
2024-04-10T09:37:23.025Z,27.39
2024-04-10T09:38:23.251Z,27.39
2024-04-10T09:39:23.018Z,27.39
2024-04-10T09:40:23.790Z,27.43
2024-04-10T09:41:23.223Z,27.43
2024-04-10T09:42:23.413Z,27.46
2024-04-10T09:43:23.139Z,27.46
2024-04-10T09:44:23.451Z,27.50
2024-04-10T09:45:23.463Z,27.54
2024-04-10T09:46:23.311Z,27.59
2024-04-10T09:47:23.456Z,27.62
2024-04-10T09:48:24.218Z,27.67
2024-04-10T09:49:23.550Z,27.70
2024-04-10T09:50:23.594Z,27.73
2024-04-10T09:51:23.620Z,27.77
2024-04-10T09:52:23.828Z,27.77
2024-04-10T09:53:24.080Z,27.80
2024-04-10T09:54:23.714Z,27.82
2024-04-10T09:55:23.804Z,27.87
2024-04-10T09:56:23.838Z,27.87
2024-04-10T09:57:24.336Z,27.92
2024-04-10T09:58:24.550Z,27.93
2024-04-10T09:59:24.560Z,27.96
2024-04-10T10:00:23.989Z,27.99
2024-04-10T10:01:24.349Z,27.99
2024-04-10T10:02:24.259Z,27.97
2024-04-10T10:03:24.187Z,27.92
2024-04-10T10:04:26.552Z,27.83
2024-04-10T10:05:29.947Z,27.77
2024-04-10T10:06:26.217Z,27.67
2024-04-10T10:07:24.312Z,27.67
2024-04-10T10:08:24.261Z,27.66
2024-04-10T10:09:24.511Z,27.66
2024-04-10T10:10:24.327Z,27.70
2024-04-10T10:11:24.534Z,27.73
2024-04-10T10:12:24.479Z,27.73
2024-04-10T10:13:24.860Z,27.79
2024-04-10T10:14:24.425Z,27.82
2024-04-10T10:15:24.531Z,27.86
2024-04-10T10:16:26.415Z,27.89
2024-04-10T10:17:24.493Z,27.92
2024-04-10T10:18:32.950Z,27.93
2024-04-10T10:19:26.654Z,27.99
2024-04-10T10:20:24.622Z,28.00
2024-04-10T10:21:24.984Z,28.03
2024-04-10T10:22:24.504Z,28.05
2024-04-10T10:23:24.716Z,28.05
2024-04-10T10:24:25.775Z,28.08
2024-04-10T10:25:24.844Z,28.11
2024-04-10T10:26:25.392Z,28.14
2024-04-10T10:27:25.198Z,28.14
2024-04-10T10:28:24.515Z,28.14
2024-04-10T10:29:25.059Z,28.13
2024-04-10T10:30:24.546Z,28.14
2024-04-10T10:31:24.634Z,28.15
2024-04-10T10:32:24.725Z,28.13
2024-04-10T10:33:24.919Z,28.13
2024-04-10T10:34:25.114Z,28.10
2024-04-10T10:35:24.795Z,28.10
2024-04-10T10:36:24.804Z,28.08
2024-04-10T10:37:24.817Z,28.05
2024-04-10T10:38:24.913Z,28.05
2024-04-10T10:39:24.921Z,28.01
2024-04-10T10:40:25.471Z,28.00
2024-04-10T10:41:25.101Z,27.99
2024-04-10T10:42:25.112Z,28.00
2024-04-10T10:43:25.401Z,28.00
2024-04-10T10:44:26.019Z,27.97
2024-04-10T10:45:25.324Z,27.99
2024-04-10T10:46:25.431Z,27.94
2024-04-10T10:47:25.527Z,27.94
2024-04-10T10:48:26.184Z,27.92
2024-04-10T10:49:25.537Z,27.92
2024-04-10T10:50:25.793Z,27.90
2024-04-10T10:51:26.490Z,27.87
2024-04-10T10:52:26.591Z,27.87
2024-04-10T10:53:25.990Z,27.84
2024-04-10T10:54:26.173Z,27.84
2024-04-10T10:55:28.958Z,27.82
2024-04-10T10:56:26.133Z,27.82
2024-04-10T10:57:26.580Z,27.82
2024-04-10T10:58:26.105Z,27.80
2024-04-10T10:59:25.945Z,27.79
2024-04-10T11:00:26.027Z,27.79
2024-04-10T11:01:27.238Z,27.77
2024-04-10T11:02:26.156Z,27.76
2024-04-10T11:03:29.806Z,27.76
2024-04-10T11:04:26.414Z,27.72
2024-04-10T11:05:26.470Z,27.74
2024-04-10T11:06:26.081Z,27.72
2024-04-10T11:07:25.960Z,27.70
2024-04-10T11:08:27.030Z,27.74
2024-04-10T11:09:26.439Z,27.69
2024-04-10T11:10:27.022Z,27.70
2024-04-10T11:11:29.324Z,27.69
2024-04-10T11:12:26.140Z,27.67
2024-04-10T11:13:27.548Z,27.70
2024-04-10T11:14:26.156Z,27.69
2024-04-10T11:15:27.980Z,27.67
2024-04-10T11:16:27.088Z,27.70
2024-04-10T11:17:27.312Z,27.69
2024-04-10T11:18:26.219Z,27.69
2024-04-10T11:19:31.824Z,27.69
2024-04-10T11:20:27.243Z,27.66
2024-04-10T11:21:26.338Z,27.67
2024-04-10T11:22:26.125Z,27.62
2024-04-10T11:23:26.283Z,27.60
2024-04-10T11:24:26.079Z,27.57
2024-04-10T11:25:26.072Z,27.54
2024-04-10T11:26:26.218Z,27.53
2024-04-10T11:27:26.082Z,27.54
2024-04-10T11:28:26.100Z,27.53
2024-04-10T11:29:26.233Z,27.54
2024-04-10T11:30:26.103Z,27.53
2024-04-10T11:31:26.084Z,27.53
2024-04-10T11:32:26.274Z,27.52
2024-04-10T11:33:26.336Z,27.53
2024-04-10T11:34:26.263Z,27.53
2024-04-10T11:35:26.251Z,27.53
2024-04-10T11:36:26.105Z,27.53
2024-04-10T11:37:26.126Z,27.52
2024-04-10T11:38:26.175Z,27.50
2024-04-10T11:39:26.132Z,27.52
2024-04-10T11:40:26.084Z,27.52
2024-04-10T11:41:26.373Z,27.49
2024-04-10T11:42:26.210Z,27.53
2024-04-10T11:43:26.221Z,27.52
2024-04-10T11:44:26.337Z,27.50
2024-04-10T11:45:26.605Z,27.46
2024-04-10T11:46:26.611Z,27.49
2024-04-10T11:47:26.688Z,27.49
2024-04-10T11:48:26.699Z,27.46
2024-04-10T11:49:26.769Z,27.45
2024-04-10T11:50:26.828Z,27.48
2024-04-10T11:51:26.763Z,27.46
2024-04-10T11:52:26.860Z,27.49
2024-04-10T11:53:27.005Z,27.49
2024-04-10T11:54:27.090Z,27.48
2024-04-10T11:55:27.193Z,27.45
2024-04-10T11:56:27.264Z,27.48
2024-04-10T11:57:27.386Z,27.45
2024-04-10T11:58:27.245Z,27.46
2024-04-10T11:59:27.393Z,27.49
2024-04-10T12:00:27.409Z,27.50
2024-04-10T12:01:27.567Z,27.56
2024-04-10T12:02:27.660Z,27.59
2024-04-10T12:03:27.856Z,27.62
2024-04-10T12:04:27.687Z,27.59
2024-04-10T12:05:27.867Z,27.64
2024-04-10T12:06:28.269Z,27.64
2024-04-10T12:07:29.453Z,27.67
2024-04-10T12:08:28.045Z,27.67
2024-04-10T12:09:27.983Z,27.72
2024-04-10T12:10:28.042Z,27.72
2024-04-10T12:11:29.008Z,27.76
2024-04-10T12:12:28.210Z,27.77
2024-04-10T12:13:28.240Z,27.73
2024-04-10T12:14:28.721Z,27.77
2024-04-10T12:15:29.069Z,27.74
2024-04-10T12:16:28.333Z,27.73
2024-04-10T12:17:28.522Z,27.70
2024-04-10T12:18:29.820Z,27.67
2024-04-10T12:19:28.998Z,27.64
2024-04-10T12:20:28.549Z,27.62
2024-04-10T12:21:28.605Z,27.57
2024-04-10T12:22:28.734Z,27.57
2024-04-10T12:23:28.730Z,27.52
2024-04-10T12:24:28.792Z,27.59
2024-04-10T12:25:28.967Z,27.52
2024-04-10T12:26:29.006Z,27.53
2024-04-10T12:27:29.028Z,27.50
2024-04-10T12:28:29.094Z,27.50
2024-04-10T12:29:29.489Z,27.50
2024-04-10T12:30:29.136Z,27.50
2024-04-10T12:31:29.212Z,27.52
2024-04-10T12:32:29.540Z,27.49
2024-04-10T12:33:29.419Z,27.50
2024-04-10T12:34:29.532Z,27.48
2024-04-10T12:35:29.667Z,27.48
2024-04-10T12:36:29.511Z,27.45
2024-04-10T12:37:29.646Z,27.49
2024-04-10T12:38:29.738Z,27.50
2024-04-10T12:39:29.747Z,27.50
2024-04-10T12:40:29.756Z,27.49
2024-04-10T12:41:29.905Z,27.50
2024-04-10T12:42:29.893Z,27.48
2024-04-10T12:43:30.068Z,27.43
2024-04-10T12:44:30.032Z,27.43
2024-04-10T12:45:30.959Z,27.48
2024-04-10T12:46:30.176Z,27.54
2024-04-10T12:47:30.269Z,27.59
2024-04-10T12:48:30.371Z,27.63
2024-04-10T12:49:30.292Z,27.67
2024-04-10T12:50:30.407Z,27.69
2024-04-10T12:51:30.975Z,27.67
2024-04-10T12:52:33.838Z,27.73
2024-04-10T12:53:32.101Z,27.74